Time;durP1;ratioP1;P1;durP2;ratioP2;P2;SDS_P1;SDS_P2;PMS_P1;PMS_P2;Temp;Humidity;BMP_temperature;BMP_pressure;BME280_temperature;BME280_humidity;BME280_pressure;Samples;Min_cycle;Max_cycle;Signal;HPM_P1;HPM_P2
2022/03/21 00:01:51;;;;;;;16.00;9.10;;;;;;;-1.38;46.61;98913.94;108059;1269;35312;-73
2022/03/21 00:04:22;;;;;;;13.30;8.50;;;;;;;-1.35;46.53;98912.48;108078;1268;39183;-73
2022/03/21 00:06:53;;;;;;;13.80;8.50;;;;;;;-1.35;46.33;98908.33;108034;1269;42746;-74
2022/03/21 00:09:24;;;;;;;15.60;8.50;;;;;;;-1.37;46.42;98909.23;107745;1271;373880;-74
2022/03/21 00:11:55;;;;;;;16.30;9.80;;;;;;;-1.52;47.12;98908.85;108089;1269;42663;-73
2022/03/21 00:14:27;;;;;;;15.90;9.30;;;;;;;-1.60;46.98;98909.98;108088;1268;45816;-73
2022/03/21 00:16:58;;;;;;;15.50;9.10;;;;;;;-1.53;46.69;98912.12;108144;1268;44878;-73
2022/03/21 00:19:29;;;;;;;14.70;8.90;;;;;;;-1.43;46.35;98907.88;108135;1268;34022;-73
2022/03/21 00:22:01;;;;;;;12.40;8.10;;;;;;;-1.34;46.16;98905.61;108099;1270;39640;-73
2022/03/21 00:24:32;;;;;;;18.40;9.30;;;;;;;-1.36;46.54;98901.65;108082;1271;43012;-73
2022/03/21 00:27:03;;;;;;;17.40;9.60;;;;;;;-1.56;47.47;98898.50;108117;1268;40582;-73
2022/03/21 00:29:34;;;;;;;13.60;9.20;;;;;;;-1.76;47.48;98894.03;108104;1268;69431;-73
2022/03/21 00:32:07;;;;;;;13.90;8.70;;;;;;;-1.80;47.59;98891.74;108043;1271;32608;-73
2022/03/21 00:34:37;;;;;;;16.00;9.00;;;;;;;-1.74;48.02;98889.85;108139;1268;30777;-73
2022/03/21 00:37:09;;;;;;;15.40;9.50;;;;;;;-1.65;47.99;98890.39;108228;1268;31816;-73
2022/03/21 00:39:41;;;;;;;19.60;11.00;;;;;;;-1.47;47.57;98884.82;108180;1268;27115;-73
2022/03/21 00:42:12;;;;;;;15.20;9.70;;;;;;;-1.55;47.57;98881.95;108156;1269;29926;-73
2022/03/21 00:44:43;;;;;;;16.10;9.50;;;;;;;-1.53;47.33;98881.90;108162;1268;41124;-74
2022/03/21 00:47:14;;;;;;;15.30;9.10;;;;;;;-1.46;47.00;98879.30;108039;1271;58106;-73
2022/03/21 00:49:48;;;;;;;15.60;8.90;;;;;;;-1.45;46.92;98877.54;108152;1268;39676;-73
2022/03/21 00:52:19;;;;;;;17.40;11.30;;;;;;;-1.71;47.85;98878.39;108023;1269;47065;-73
2022/03/21 00:54:50;;;;;;;15.50;9.80;;;;;;;-2.01;48.36;98872.45;108127;1269;33612;-73
2022/03/21 00:57:21;;;;;;;13.30;8.80;;;;;;;-2.07;48.25;98869.73;108107;1268;41703;-73
2022/03/21 00:59:52;;;;;;;16.90;10.10;;;;;;;-2.02;48.27;98878.03;108060;1270;38531;-73
2022/03/21 01:02:23;;;;;;;16.40;8.80;;;;;;;-1.99;48.50;98876.40;108156;1269;38550;-73
2022/03/21 01:04:54;;;;;;;13.30;8.50;;;;;;;-1.91;48.40;98872.83;108109;1270;34264;-73
2022/03/21 01:07:24;;;;;;;18.00;8.60;;;;;;;-1.85;48.22;98871.77;108120;1268;32619;-73
2022/03/21 01:09:55;;;;;;;11.90;8.30;;;;;;;-1.81;47.87;98866.35;108122;1268;34628;-73
2022/03/21 01:12:26;;;;;;;14.00;8.60;;;;;;;-1.73;47.52;98865.30;108114;1268;35338;-73
2022/03/21 01:14:58;;;;;;;14.70;8.90;;;;;;;-1.69;47.49;98868.18;108085;1269;45524;-73
2022/03/21 01:17:29;;;;;;;15.60;9.10;;;;;;;-1.74;47.30;98868.86;108106;1270;42612;-73
2022/03/21 01:20:00;;;;;;;14.50;8.60;;;;;;;-1.72;47.34;98867.64;108097;1268;34632;-73
2022/03/21 01:22:31;;;;;;;15.00;9.00;;;;;;;-1.64;47.16;98867.72;108083;1269;43286;-73
2022/03/21 01:25:01;;;;;;;13.70;9.30;;;;;;;-1.53;47.07;98864.27;108099;1268;41770;-73
2022/03/21 01:27:34;;;;;;;15.50;9.20;;;;;;;-1.49;46.90;98860.90;108044;1269;46359;-73
2022/03/21 01:30:06;;;;;;;17.90;9.00;;;;;;;-1.42;46.74;98858.67;108131;1268;46242;-73
2022/03/21 01:32:42;;;;;;;14.00;9.30;;;;;;;-1.45;46.81;98857.39;108192;1268;34432;-73
2022/03/21 01:35:15;;;;;;;14.90;9.20;;;;;;;-1.61;47.81;98855.69;108081;1269;40630;-75
2022/03/21 01:37:46;;;;;;;16.80;9.70;;;;;;;-1.87;48.06;98856.06;108118;1269;52282;-73
2022/03/21 01:40:18;;;;;;;15.00;8.60;;;;;;;-2.00;48.27;98857.58;108108;1268;43339;-74
2022/03/21 01:42:49;;;;;;;14.80;8.80;;;;;;;-1.91;48.38;98855.14;108129;1270;35484;-73
2022/03/21 01:45:20;;;;;;;14.70;9.00;;;;;;;-1.83;48.24;98849.71;108128;1268;31036;-73
2022/03/21 01:47:51;;;;;;;13.60;8.10;;;;;;;-1.75;47.93;98851.27;108078;1269;29853;-73
2022/03/21 01:50:22;;;;;;;15.50;8.90;;;;;;;-1.73;47.89;98849.51;108075;1268;42122;-73
2022/03/21 01:55:43;;;;;;;13.10;8.10;;;;;;;-1.78;48.02;98849.78;108063;1268;48020;-73
2022/03/21 01:55:48;;;;;;;14.50;8.90;;;;;;;-1.82;48.13;98848.27;108050;1271;39745;-73
2022/03/21 01:58:21;;;;;;;11.80;7.60;;;;;;;-1.82;48.12;98847.08;107975;1271;47025;-73
2022/03/21 02:00:53;;;;;;;13.40;8.50;;;;;;;-1.80;48.40;98848.59;108062;1271;37792;-73
2022/03/21 02:03:25;;;;;;;13.70;8.50;;;;;;;-1.77;48.32;98849.02;108093;1270;45668;-73
2022/03/21 02:05:56;;;;;;;12.30;8.10;;;;;;;-1.73;48.04;98849.04;108146;1271;32786;-73
2022/03/21 02:08:28;;;;;;;10.60;7.30;;;;;;;-1.73;48.10;98847.77;108092;1271;40822;-74
2022/03/21 02:10:59;;;;;;;14.60;8.20;;;;;;;-1.76;48.11;98848.95;108128;1268;32506;-72
2022/03/21 02:13:31;;;;;;;19.00;9.10;;;;;;;-1.79;47.98;98846.92;108134;1268;41733;-73
2022/03/21 02:16:02;;;;;;;14.70;8.90;;;;;;;-1.99;48.48;98848.67;108121;1270;38111;-73
2022/03/21 02:18:35;;;;;;;15.00;9.40;;;;;;;-2.19;48.44;98854.55;108097;1268;65215;-73
2022/03/21 02:21:07;;;;;;;14.90;8.50;;;;;;;-2.18;48.58;98853.95;108068;1271;38008;-73
2022/03/21 02:23:52;;;;;;;17.00;8.50;;;;;;;-2.18;48.41;98857.52;108068;1271;41782;-73
2022/03/21 02:26:25;;;;;;;12.80;8.50;;;;;;;-2.17;48.41;98859.16;108130;1268;43744;-73
2022/03/21 02:28:57;;;;;;;15.40;8.70;;;;;;;-2.12;48.39;98854.05;108131;1268;31895;-72
2022/03/21 02:31:29;;;;;;;14.80;8.00;;;;;;;-2.11;48.28;98855.67;108155;1268;27569;-73
2022/03/21 02:34:01;;;;;;;13.60;7.50;;;;;;;-2.09;48.30;98854.50;108103;1268;41304;-73
2022/03/21 02:36:33;;;;;;;14.90;9.00;;;;;;;-2.02;48.27;98851.88;108036;1271;42159;-73
2022/03/21 02:39:04;;;;;;;12.10;8.10;;;;;;;-1.94;48.31;98856.48;108125;1268;40548;-73
2022/03/21 02:41:35;;;;;;;16.80;8.10;;;;;;;-1.85;48.31;98852.65;108081;1268;35444;-73
2022/03/21 02:44:07;;;;;;;13.60;9.10;;;;;;;-1.72;48.38;98855.46;108111;1268;39061;-73
2022/03/21 02:46:39;;;;;;;13.30;8.30;;;;;;;-1.68;48.32;98856.48;108086;1268;45014;-72
2022/03/21 02:49:22;;;;;;;12.40;7.80;;;;;;;-1.63;48.27;98858.43;108098;1271;38989;-72
2022/03/21 02:51:56;;;;;;;14.00;7.20;;;;;;;-1.81;48.25;98858.02;108097;1270;41659;-73
2022/03/21 02:54:27;;;;;;;13.60;8.00;;;;;;;-1.88;48.63;98858.23;108139;1270;34120;-72
2022/03/21 02:56:59;;;;;;;12.20;8.30;;;;;;;-1.68;48.50;98860.34;108109;1270;41126;-73
2022/03/21 02:59:30;;;;;;;16.00;8.80;;;;;;;-1.66;48.40;98855.58;108059;1269;42768;-73
2022/03/21 03:02:02;;;;;;;14.60;8.30;;;;;;;-1.76;48.29;98853.98;108074;1269;35349;-72
2022/03/21 03:04:33;;;;;;;13.30;8.80;;;;;;;-1.89;48.25;98856.67;107986;1271;41944;-73
2022/03/21 03:07:04;;;;;;;13.50;8.00;;;;;;;-1.99;48.20;98854.02;108091;1268;27961;-73
2022/03/21 03:09:35;;;;;;;13.40;8.00;;;;;;;-2.01;48.27;98856.80;108068;1271;33253;-73
2022/03/21 03:12:08;;;;;;;11.50;7.30;;;;;;;-2.03;48.71;98859.27;108087;1268;44681;-73
2022/03/21 03:14:39;;;;;;;14.20;7.80;;;;;;;-2.15;49.95;98861.63;108098;1271;27647;-73
2022/03/21 03:17:09;;;;;;;12.60;7.90;;;;;;;-2.34;50.00;98861.13;108102;1271;32640;-73
2022/03/21 03:19:41;;;;;;;15.20;8.80;;;;;;;-2.34;49.75;98857.11;108097;1268;34259;-73
2022/03/21 03:22:13;;;;;;;14.60;7.60;;;;;;;-2.22;49.64;98860.04;108073;1269;36568;-73
2022/03/21 03:24:45;;;;;;;14.70;8.20;;;;;;;-2.15;49.53;98861.23;107981;1271;31114;-73
2022/03/21 03:27:16;;;;;;;14.80;9.00;;;;;;;-2.05;49.41;98858.98;108037;1268;43516;-73
2022/03/21 03:29:47;;;;;;;13.80;7.80;;;;;;;-2.03;49.23;98859.77;108015;1270;46649;-73
2022/03/21 03:32:19;;;;;;;15.80;8.10;;;;;;;-2.04;49.41;98856.23;108044;1268;46232;-73
2022/03/21 03:34:50;;;;;;;12.80;8.80;;;;;;;-2.09;49.60;98861.02;108050;1268;35121;-73
2022/03/21 03:37:21;;;;;;;12.70;8.30;;;;;;;-2.17;49.38;98859.16;108118;1268;29508;-72
2022/03/21 03:39:52;;;;;;;13.30;8.50;;;;;;;-2.22;49.41;98856.67;108052;1271;41334;-73
2022/03/21 03:42:22;;;;;;;10.40;8.10;;;;;;;-2.24;49.31;98855.88;108017;1270;40649;-72
2022/03/21 03:44:53;;;;;;;14.10;8.70;;;;;;;-2.27;49.13;98852.16;108083;1268;42022;-73
2022/03/21 03:47:24;;;;;;;12.10;7.10;;;;;;;-2.28;49.78;98855.33;108020;1268;41301;-73
2022/03/21 03:49:55;;;;;;;14.40;8.20;;;;;;;-2.31;50.90;98856.88;107980;1271;45812;-73
2022/03/21 03:52:26;;;;;;;12.80;8.40;;;;;;;-2.55;51.59;98858.55;108056;1268;47372;-73
2022/03/21 03:54:56;;;;;;;14.10;8.30;;;;;;;-2.66;52.06;98857.64;107995;1271;31700;-73
2022/03/21 03:57:27;;;;;;;13.40;8.10;;;;;;;-2.51;51.72;98850.89;108017;1270;32734;-72
2022/03/21 03:59:58;;;;;;;15.60;8.50;;;;;;;-2.46;51.40;98856.08;107999;1269;41681;-73
2022/03/21 04:02:29;;;;;;;16.80;9.00;;;;;;;-2.43;50.99;98854.31;108037;1269;39455;-72
2022/03/21 04:05:00;;;;;;;14.20;8.00;;;;;;;-2.39;50.60;98858.28;108117;1268;45730;-72
2022/03/21 04:07:31;;;;;;;15.10;8.40;;;;;;;-2.44;50.90;98854.52;108053;1268;42434;-72
2022/03/21 04:10:02;;;;;;;16.20;8.60;;;;;;;-2.42;51.04;98854.91;108110;1268;30197;-73
2022/03/21 04:12:33;;;;;;;13.80;8.40;;;;;;;-2.38;50.86;98855.95;108038;1268;51387;-72
2022/03/21 04:15:04;;;;;;;16.10;8.90;;;;;;;-2.34;50.78;98858.34;108071;1268;31272;-73
2022/03/21 04:17:36;;;;;;;16.00;8.30;;;;;;;-2.40;50.75;98863.19;108014;1271;40763;-72
2022/03/21 04:20:09;;;;;;;15.20;9.10;;;;;;;-2.44;51.07;98858.23;107975;1270;43747;-73
2022/03/21 04:22:40;;;;;;;16.10;9.40;;;;;;;-2.45;50.96;98855.33;108124;1268;40685;-72
2022/03/21 04:25:13;;;;;;;13.50;8.00;;;;;;;-2.45;50.76;98855.16;108021;1269;37139;-73
2022/03/21 04:27:44;;;;;;;14.80;8.20;;;;;;;-2.45;50.66;98856.55;108068;1269;31270;-73
2022/03/21 04:30:15;;;;;;;16.40;8.60;;;;;;;-2.48;50.66;98859.77;108074;1268;33414;-73
2022/03/21 04:32:46;;;;;;;14.60;8.70;;;;;;;-2.55;51.27;98860.77;107973;1271;44403;-73
2022/03/21 04:35:16;;;;;;;16.50;8.70;;;;;;;-2.65;51.83;98862.59;107977;1268;44993;-73
2022/03/21 04:37:47;;;;;;;14.70;9.20;;;;;;;-2.72;52.20;98864.75;108037;1268;46381;-72
2022/03/21 04:40:18;;;;;;;12.50;8.20;;;;;;;-2.68;52.32;98860.73;107972;1268;37955;-72
2022/03/21 04:42:49;;;;;;;13.70;8.20;;;;;;;-2.63;52.06;98864.64;107992;1270;39928;-73
2022/03/21 04:45:34;;;;;;;13.60;8.50;;;;;;;-2.56;51.95;98864.17;108045;1268;43169;-73
2022/03/21 04:48:05;;;;;;;14.70;8.50;;;;;;;-2.55;52.08;98865.06;108006;1269;34839;-75
2022/03/21 04:50:37;;;;;;;15.80;8.90;;;;;;;-2.61;52.06;98867.19;108029;1270;28717;-73
2022/03/21 04:53:10;;;;;;;15.00;9.00;;;;;;;-2.52;52.05;98862.08;108011;1268;42375;-73
2022/03/21 04:55:42;;;;;;;13.30;9.10;;;;;;;-2.28;52.17;98862.45;108089;1269;31524;-73
2022/03/21 04:58:13;;;;;;;15.00;8.60;;;;;;;-1.94;51.91;98865.51;108150;1268;38648;-73
2022/03/21 05:00:44;;;;;;;17.00;9.20;;;;;;;-1.55;51.42;98865.50;108133;1268;31753;-73
2022/03/21 05:03:15;;;;;;;15.20;9.00;;;;;;;-1.25;50.97;98868.48;108071;1268;40864;-73
2022/03/21 05:05:46;;;;;;;13.60;8.30;;;;;;;-0.87;50.80;98864.23;107995;1270;44172;-73
2022/03/21 05:08:17;;;;;;;13.00;8.70;;;;;;;-0.41;50.02;98868.02;107985;1271;41250;-73
2022/03/21 05:10:49;;;;;;;19.90;11.70;;;;;;;-0.02;49.52;98871.87;108037;1268;32223;-73
2022/03/21 05:13:20;;;;;;;18.20;11.60;;;;;;;0.52;48.93;98873.89;108094;1268;37246;-73
2022/03/21 05:15:51;;;;;;;16.80;12.40;;;;;;;1.21;48.20;98870.25;108072;1268;31074;-73
2022/03/21 05:18:22;;;;;;;16.10;11.60;;;;;;;1.88;47.54;98871.50;108045;1268;47877;-73
2022/03/21 05:20:53;;;;;;;15.50;10.50;;;;;;;2.39;46.86;98872.22;108023;1269;42143;-74
2022/03/21 05:31:49;;;;;;;14.90;11.30;;;;;;;5.26;43.82;98875.70;108041;1268;74980;-74
2022/03/21 05:37:08;;;;;;;14.00;11.10;;;;;;;6.71;42.23;98878.95;108105;1268;39726;-73
2022/03/21 05:40:31;;;;;;;16.20;12.20;;;;;;;7.36;41.22;98879.95;108070;1269;28913;-74
2022/03/21 05:42:31;;;;;;;18.40;12.80;;;;;;;8.11;40.39;98881.91;107999;1270;45049;-73
2022/03/21 05:45:02;;;;;;;17.60;13.00;;;;;;;8.69;39.68;98888.31;108031;1269;33803;-73
2022/03/21 05:48:50;;;;;;;16.10;12.20;;;;;;;9.38;38.77;98884.64;107977;1271;41564;-73
2022/03/21 05:50:27;;;;;;;17.30;12.50;;;;;;;10.08;37.70;98885.65;107998;1269;41877;-73
2022/03/21 05:52:59;;;;;;;17.80;13.50;;;;;;;10.72;37.23;98888.27;108061;1267;41950;-73
2022/03/21 05:55:32;;;;;;;19.80;13.40;;;;;;;11.25;36.09;98883.54;108041;1268;40823;-73
2022/03/21 05:58:03;;;;;;;17.40;13.60;;;;;;;11.81;35.84;98886.52;108034;1269;38415;-74
2022/03/21 06:00:36;;;;;;;18.10;13.40;;;;;;;12.49;35.15;98891.66;108088;1268;39929;-73
2022/03/21 06:03:09;;;;;;;19.40;14.50;;;;;;;13.10;34.58;98891.98;108131;1268;34425;-73
2022/03/21 06:05:40;;;;;;;18.50;14.60;;;;;;;13.53;33.76;98893.45;108019;1268;40900;-73
2022/03/21 06:08:11;;;;;;;19.30;15.10;;;;;;;13.97;32.92;98894.73;108120;1267;35634;-73
2022/03/21 06:10:42;;;;;;;18.80;15.10;;;;;;;14.31;32.26;98896.45;108031;1269;38721;-73
2022/03/21 06:13:13;;;;;;;18.60;14.70;;;;;;;14.59;31.43;98896.91;108195;1268;32242;-73
2022/03/21 06:15:47;;;;;;;20.10;14.60;;;;;;;14.86;31.37;98895.52;108024;1268;43433;-74
2022/03/21 06:18:18;;;;;;;19.80;15.10;;;;;;;15.47;31.07;98896.96;108092;1268;43336;-73
2022/03/21 06:20:48;;;;;;;17.90;15.10;;;;;;;15.79;30.77;98896.19;108122;1268;41802;-73
2022/03/21 06:23:19;;;;;;;16.50;14.70;;;;;;;16.00;30.10;98896.45;108076;1268;39144;-73
2022/03/21 06:25:51;;;;;;;18.30;15.10;;;;;;;16.32;29.93;98894.20;108018;1269;39035;-73
2022/03/21 06:28:23;;;;;;;19.30;15.40;;;;;;;16.91;29.33;98890.04;108041;1267;49172;-73
2022/03/21 06:30:54;;;;;;;17.60;14.70;;;;;;;17.39;28.71;98891.77;108009;1268;33676;-73
2022/03/21 06:33:26;;;;;;;17.00;14.90;;;;;;;17.91;28.15;98885.69;107973;1269;45775;-73
2022/03/21 06:36:00;;;;;;;17.40;14.60;;;;;;;18.21;26.86;98886.93;107999;1268;36768;-73
2022/03/21 06:38:31;;;;;;;17.80;15.10;;;;;;;18.47;26.91;98883.38;108013;1268;35755;-73
2022/03/21 06:41:03;;;;;;;17.10;14.50;;;;;;;19.11;26.40;98881.13;107995;1269;38199;-73
2022/03/21 06:43:34;;;;;;;17.80;14.00;;;;;;;19.62;25.97;98883.06;108081;1268;36646;-73
2022/03/21 06:46:06;;;;;;;18.20;14.70;;;;;;;19.81;25.41;98888.63;108106;1268;34171;-73
2022/03/21 06:48:37;;;;;;;16.20;14.20;;;;;;;19.78;25.10;98890.05;108069;1268;25257;-73
2022/03/21 06:51:10;;;;;;;17.60;14.10;;;;;;;20.13;24.54;98890.97;108017;1268;39068;-73
2022/03/21 06:53:41;;;;;;;16.40;13.90;;;;;;;20.33;24.17;98885.77;108087;1268;27677;-73
2022/03/21 06:56:12;;;;;;;16.30;13.40;;;;;;;20.86;23.60;98889.52;108032;1269;39233;-73
2022/03/21 06:58:43;;;;;;;18.40;14.50;;;;;;;21.24;23.02;98888.11;108160;1268;32401;-73
2022/03/21 07:01:14;;;;;;;15.10;13.60;;;;;;;21.43;22.77;98889.40;108100;1268;36039;-73
2022/03/21 07:03:44;;;;;;;15.10;13.50;;;;;;;21.96;22.57;98888.17;108059;1268;39476;-74
2022/03/21 07:06:15;;;;;;;16.60;14.70;;;;;;;22.12;21.91;98888.11;108136;1268;36552;-74
2022/03/21 07:08:51;;;;;;;15.60;14.00;;;;;;;21.83;21.59;98886.98;107994;1269;31888;-74
2022/03/21 07:11:22;;;;;;;15.00;13.40;;;;;;;21.97;21.38;98886.53;108123;1268;33044;-73
2022/03/21 07:13:53;;;;;;;14.10;12.60;;;;;;;22.12;20.96;98887.58;108006;1269;37826;-73
2022/03/21 07:16:24;;;;;;;13.50;12.10;;;;;;;21.73;20.63;98882.72;108030;1268;38870;-74
2022/03/21 07:18:55;;;;;;;14.70;12.00;;;;;;;22.22;20.70;98880.21;108107;1268;37506;-74
2022/03/21 07:21:25;;;;;;;13.60;12.10;;;;;;;22.80;20.50;98877.65;108146;1268;39918;-73
2022/03/21 07:23:56;;;;;;;13.50;12.10;;;;;;;23.27;20.29;98881.55;108072;1268;37544;-73
2022/03/21 07:26:27;;;;;;;14.80;12.50;;;;;;;23.86;19.86;98881.50;108092;1268;39942;-74
2022/03/21 07:28:58;;;;;;;18.00;13.00;;;;;;;24.52;19.79;98876.19;107976;1269;40434;-74
2022/03/21 07:31:29;;;;;;;14.70;12.40;;;;;;;25.04;19.19;98879.37;108021;1269;32312;-74
2022/03/21 07:34:00;;;;;;;14.10;12.60;;;;;;;24.53;18.20;98881.09;108101;1268;26456;-74
2022/03/21 07:36:31;;;;;;;14.40;12.90;;;;;;;23.71;18.59;98881.54;108105;1268;41130;-74
2022/03/21 07:39:01;;;;;;;13.70;12.30;;;;;;;23.29;18.14;98880.19;108103;1267;34488;-74
2022/03/21 07:41:33;;;;;;;14.70;13.20;;;;;;;23.29;18.79;98878.18;108010;1269;38680;-74
2022/03/21 07:44:05;;;;;;;14.90;13.40;;;;;;;23.75;18.18;98881.03;107962;1271;38874;-74
2022/03/21 07:49:24;;;;;;;14.80;13.10;;;;;;;22.66;17.37;98885.64;108010;1271;34230;-74
2022/03/21 07:51:55;;;;;;;15.20;13.60;;;;;;;22.11;17.80;98890.42;108017;1269;34088;-74
2022/03/21 07:54:25;;;;;;;15.10;13.60;;;;;;;22.40;18.46;98890.80;107974;1269;35566;-74
2022/03/21 07:56:56;;;;;;;14.80;13.40;;;;;;;23.45;18.65;98886.11;108030;1269;40570;-74
2022/03/21 07:59:27;;;;;;;15.00;13.50;;;;;;;24.61;18.34;98886.46;107993;1269;39421;-73
2022/03/21 08:01:58;;;;;;;14.40;13.00;;;;;;;25.27;17.92;98883.30;108016;1269;39303;-74
2022/03/21 08:04:31;;;;;;;16.60;14.90;;;;;;;25.87;17.75;98883.95;108051;1271;39593;-74
2022/03/21 08:07:02;;;;;;;14.90;13.40;;;;;;;26.22;17.26;98880.74;107998;1268;40531;-74
2022/03/21 08:09:32;;;;;;;14.70;12.90;;;;;;;26.04;17.01;98884.27;108008;1271;41758;-74
2022/03/21 08:12:06;;;;;;;14.90;13.50;;;;;;;25.81;16.09;98881.46;107991;1271;41324;-74
2022/03/21 08:14:37;;;;;;;14.80;13.40;;;;;;;25.03;15.93;98880.11;108014;1271;41041;-74
2022/03/21 08:17:08;;;;;;;15.10;12.70;;;;;;;23.24;14.95;98879.42;108021;1268;37639;-74
2022/03/21 08:19:39;;;;;;;15.30;13.70;;;;;;;21.46;15.37;98884.84;108097;1269;36086;-74
2022/03/21 08:22:10;;;;;;;14.20;12.70;;;;;;;20.23;16.79;98883.64;108044;1269;37198;-74
2022/03/21 08:24:41;;;;;;;15.10;13.60;;;;;;;20.32;16.74;98877.37;108082;1269;39950;-73
2022/03/21 08:27:14;;;;;;;14.70;13.30;;;;;;;19.94;17.02;98873.27;108083;1269;31004;-73
2022/03/21 08:29:44;;;;;;;15.70;14.10;;;;;;;19.87;17.01;98872.90;108091;1269;31011;-74
2022/03/21 08:32:15;;;;;;;16.20;14.60;;;;;;;20.40;17.81;98869.42;108056;1269;35742;-73
2022/03/21 08:34:46;;;;;;;16.80;14.90;;;;;;;20.87;16.63;98871.78;108062;1268;35799;-74
2022/03/21 08:37:18;;;;;;;16.30;14.60;;;;;;;20.91;16.93;98866.81;108097;1268;37436;-73
2022/03/21 08:39:48;;;;;;;17.10;13.70;;;;;;;21.15;17.72;98868.48;108096;1268;41950;-73
2022/03/21 08:42:19;;;;;;;15.20;13.00;;;;;;;22.32;18.00;98865.91;108046;1268;33967;-73
2022/03/21 08:44:50;;;;;;;11.80;9.40;;;;;;;23.37;16.42;98861.01;108099;1268;41041;-73
2022/03/21 08:47:21;;;;;;;15.00;11.60;;;;;;;21.50;14.79;98862.33;107995;1269;47808;-73
2022/03/21 08:49:52;;;;;;;13.40;10.50;;;;;;;20.81;16.92;98864.02;107994;1269;41724;-73
2022/03/21 08:52:23;;;;;;;11.80;9.20;;;;;;;21.09;15.79;98862.29;108020;1269;39911;-72
2022/03/21 08:54:54;;;;;;;12.10;9.20;;;;;;;20.00;16.45;98858.09;108097;1268;32239;-73
2022/03/21 08:57:25;;;;;;;14.60;10.50;;;;;;;20.07;16.38;98861.99;108095;1268;37829;-73
2022/03/21 08:59:56;;;;;;;13.40;10.50;;;;;;;19.53;16.60;98862.09;108028;1269;37616;-73
2022/03/21 09:02:27;;;;;;;16.40;11.30;;;;;;;18.34;16.95;98863.25;108058;1267;39766;-73
2022/03/21 09:04:59;;;;;;;13.70;9.80;;;;;;;17.25;18.07;98872.21;108084;1268;31622;-73
2022/03/21 09:07:30;;;;;;;14.40;9.40;;;;;;;17.00;18.05;98870.30;108040;1268;41045;-73
2022/03/21 09:10:00;;;;;;;16.30;9.70;;;;;;;16.03;18.44;98870.23;108029;1268;48981;-73
2022/03/21 09:12:32;;;;;;;15.00;10.40;;;;;;;15.40;19.32;98869.48;108011;1269;39690;-73
2022/03/21 09:15:03;;;;;;;16.40;10.40;;;;;;;15.47;19.60;98867.83;108088;1268;34648;-72
2022/03/21 09:17:34;;;;;;;14.10;9.90;;;;;;;15.23;19.44;98870.05;108061;1268;54343;-72
2022/03/21 09:20:06;;;;;;;12.40;9.10;;;;;;;14.66;20.47;98870.48;108112;1268;43171;-72
2022/03/21 09:22:37;;;;;;;16.20;9.30;;;;;;;14.03;20.39;98870.17;108147;1268;32426;-72
2022/03/21 09:25:10;;;;;;;14.50;9.40;;;;;;;13.31;21.44;98867.87;108051;1268;39322;-72
2022/03/21 09:27:42;;;;;;;13.80;9.20;;;;;;;13.19;21.50;98868.67;108114;1268;31687;-72
2022/03/21 09:30:16;;;;;;;14.00;9.10;;;;;;;12.35;21.91;98868.10;108177;1268;39193;-73
2022/03/21 09:32:47;;;;;;;12.90;9.00;;;;;;;11.58;22.91;98866.98;108062;1268;47315;-72
2022/03/21 09:35:18;;;;;;;13.80;9.30;;;;;;;11.29;23.73;98869.26;108128;1268;39336;-72
2022/03/21 09:37:49;;;;;;;13.80;8.80;;;;;;;11.58;23.63;98868.52;108092;1268;35655;-72
2022/03/21 09:40:20;;;;;;;12.00;8.80;;;;;;;11.89;24.23;98862.11;107978;1269;39145;-72
2022/03/21 09:42:51;;;;;;;13.40;9.30;;;;;;;12.31;24.13;98859.10;108105;1268;38942;-71
2022/03/21 09:45:22;;;;;;;13.30;9.40;;;;;;;12.52;23.83;98862.98;108069;1268;36398;-72
2022/03/21 09:48:12;;;;;;;12.30;8.30;;;;;;;12.38;23.49;98855.20;108089;1268;33987;-72
2022/03/21 09:50:45;;;;;;;13.90;9.30;;;;;;;12.04;23.13;98856.08;108038;1271;36446;-72
2022/03/21 09:53:18;;;;;;;13.40;9.00;;;;;;;11.90;23.81;98855.95;108061;1269;34882;-73
2022/03/21 09:55:49;;;;;;;12.80;8.20;;;;;;;11.79;23.69;98851.39;108043;1268;37623;-73
2022/03/21 09:58:20;;;;;;;12.20;7.80;;;;;;;11.62;23.79;98846.95;108028;1268;38454;-73
2022/03/21 10:00:51;;;;;;;12.00;8.50;;;;;;;11.44;24.15;98848.12;107982;1269;39159;-73
2022/03/21 10:03:22;;;;;;;13.10;8.30;;;;;;;11.48;24.03;98845.32;107982;1269;54278;-73
2022/03/21 10:05:53;;;;;;;13.30;9.20;;;;;;;11.52;24.89;98840.95;108043;1268;79804;-72
2022/03/21 10:08:26;;;;;;;10.50;7.10;;;;;;;11.88;24.37;98843.52;108095;1268;38163;-73
2022/03/21 10:10:59;;;;;;;12.70;7.50;;;;;;;11.69;23.95;98839.45;108097;1269;33762;-73
2022/03/21 10:13:32;;;;;;;11.30;7.60;;;;;;;11.50;23.87;98838.65;108148;1268;37860;-73
2022/03/21 10:16:12;;;;;;;11.80;7.50;;;;;;;11.41;24.01;98834.52;108118;1268;40981;-73
2022/03/21 10:18:59;;;;;;;11.30;7.90;;;;;;;11.30;23.83;98835.34;108175;1268;36204;-73
2022/03/21 10:21:31;;;;;;;11.30;7.90;;;;;;;11.16;23.77;98830.69;108017;1269;39803;-73
2022/03/21 10:24:06;;;;;;;11.30;7.20;;;;;;;11.08;24.18;98827.83;108002;1269;47068;-72
2022/03/21 10:26:42;;;;;;;10.50;7.40;;;;;;;11.62;24.62;98822.35;108058;1268;39464;-73
2022/03/21 10:29:14;;;;;;;12.60;8.30;;;;;;;11.76;23.73;98817.10;108156;1268;32524;-73
2022/03/21 10:31:47;;;;;;;11.20;7.80;;;;;;;11.54;23.99;98818.28;108098;1268;41648;-74
2022/03/21 10:34:19;;;;;;;10.70;7.00;;;;;;;11.46;23.64;98817.77;108149;1268;31446;-73
2022/03/21 10:37:04;;;;;;;11.50;7.80;;;;;;;11.43;23.89;98813.45;108008;1269;36126;-74
2022/03/21 10:39:39;;;;;;;11.10;8.10;;;;;;;11.56;24.07;98813.55;108026;1269;40996;-72
2022/03/21 10:42:12;;;;;;;10.60;6.80;;;;;;;11.88;24.38;98807.48;108093;1269;38708;-73
2022/03/21 10:44:54;;;;;;;14.20;7.10;;;;;;;11.95;23.22;98809.95;108167;1267;31077;-73
2022/03/21 10:47:25;;;;;;;11.40;7.30;;;;;;;11.60;23.56;98808.73;108059;1269;25351;-72
2022/03/21 10:50:03;;;;;;;11.50;7.20;;;;;;;11.62;24.16;98802.69;108039;1269;38908;-73
2022/03/21 10:52:36;;;;;;;12.20;6.80;;;;;;;11.58;23.68;98798.13;108073;1268;39907;-73
2022/03/21 10:55:21;;;;;;;10.20;6.80;;;;;;;11.47;23.93;98797.35;108020;1268;45231;-73
2022/03/21 10:57:57;;;;;;;12.30;7.50;;;;;;;11.63;24.17;98797.50;108086;1267;44529;-73
2022/03/21 11:00:29;;;;;;;10.70;7.40;;;;;;;11.97;24.74;98797.69;108013;1268;43125;-73
2022/03/21 11:03:05;;;;;;;15.40;8.00;;;;;;;12.28;24.07;98801.75;108110;1268;39842;-73
2022/03/21 11:05:40;;;;;;;11.80;7.50;;;;;;;11.84;23.47;98799.30;108074;1268;27783;-73
2022/03/21 11:08:15;;;;;;;10.60;7.50;;;;;;;11.47;24.11;98794.95;108131;1268;31768;-73
2022/03/21 11:10:48;;;;;;;10.60;7.30;;;;;;;11.55;24.20;98795.13;108082;1268;28322;-74
2022/03/21 11:13:20;;;;;;;16.20;7.20;;;;;;;11.85;24.23;98793.88;108084;1268;37664;-74
2022/03/21 11:15:54;;;;;;;10.20;7.00;;;;;;;11.81;23.41;98792.23;108041;1268;43139;-74
2022/03/21 11:18:27;;;;;;;13.30;7.20;;;;;;;11.61;23.85;98787.10;108130;1267;32793;-73
2022/03/21 11:20:58;;;;;;;12.70;7.40;;;;;;;11.52;23.92;98782.96;108005;1268;43993;-74
2022/03/21 11:23:30;;;;;;;11.00;7.40;;;;;;;11.50;24.15;98781.31;108064;1268;48326;-74
2022/03/21 11:26:09;;;;;;;10.20;7.20;;;;;;;11.48;24.32;98777.72;108039;1268;44782;-74
2022/03/21 11:29:16;;;;;;;12.60;7.40;;;;;;;11.73;24.15;98774.83;108181;1266;36358;-74
2022/03/21 11:32:08;;;;;;;13.90;7.60;;;;;;;11.68;24.16;98766.46;107962;1270;44570;-74
2022/03/21 11:34:48;;;;;;;11.20;7.60;;;;;;;11.80;23.60;98769.04;108026;1268;41114;-74
2022/03/21 11:37:29;;;;;;;;;;;;;;;11.60;24.15;98766.68;108223;1267;35452;-74
2022/03/21 11:40:31;;;;;;;11.10;7.70;;;;;;;11.63;24.26;98761.84;108192;1268;32619;-73
2022/03/21 11:43:32;;;;;;;10.80;7.50;;;;;;;11.74;23.72;98760.67;108071;1268;39180;-74
2022/03/21 11:46:20;;;;;;;;;;;;;;;11.53;24.08;98755.25;108082;1268;35697;-74
2022/03/21 11:48:51;;;;;;;11.20;6.90;;;;;;;11.53;24.64;98751.85;108131;1268;30235;-74
2022/03/21 11:51:39;;;;;;;12.80;7.90;;;;;;;11.68;24.45;98750.80;108105;1268;42371;-74
2022/03/21 11:54:28;;;;;;;14.10;8.00;;;;;;;11.79;24.17;98752.70;108105;1269;28844;-74